createdAt,value
2022-11-17T00:00:42.784Z,14.40
2022-11-17T00:03:15.767Z,13.90
2022-11-17T00:05:44.449Z,15.53
2022-11-17T00:08:11.415Z,14.67
2022-11-17T00:10:38.245Z,12.20
2022-11-17T00:13:23.946Z,15.33
2022-11-17T00:15:50.832Z,14.77
2022-11-17T00:18:36.266Z,14.20
2022-11-17T00:21:19.709Z,13.20
2022-11-17T00:23:47.620Z,14.20
2022-11-17T00:26:24.768Z,13.97
2022-11-17T00:28:58.170Z,14.77
2022-11-17T00:31:48.706Z,14.67
2022-11-17T00:34:20.656Z,14.23
2022-11-17T00:36:54.090Z,13.07
2022-11-17T00:39:24.042Z,15.17
2022-11-17T00:41:51.020Z,13.70
2022-11-17T00:44:17.972Z,13.37
2022-11-17T00:46:44.970Z,13.10
2022-11-17T00:49:12.718Z,14.03
2022-11-17T00:51:39.565Z,13.10
2022-11-17T00:54:10.988Z,14.13
2022-11-17T00:56:38.112Z,14.40
2022-11-17T00:59:05.199Z,14.37
2022-11-17T01:01:32.579Z,15.70
2022-11-17T01:04:04.498Z,14.93
2022-11-17T01:06:41.348Z,13.90
2022-11-17T01:09:23.662Z,14.33
2022-11-17T01:11:53.336Z,14.10
2022-11-17T01:14:28.326Z,14.47
2022-11-17T01:16:56.117Z,16.10
2022-11-17T01:19:24.463Z,15.60
2022-11-17T01:21:51.343Z,15.73
2022-11-17T01:24:18.790Z,13.80
2022-11-17T01:26:46.942Z,13.27
2022-11-17T01:29:17.289Z,14.40
2022-11-17T01:31:49.917Z,14.07
2022-11-17T01:34:17.292Z,13.70
2022-11-17T01:37:03.621Z,12.17
2022-11-17T01:39:32.036Z,12.90
2022-11-17T01:42:10.980Z,12.50
2022-11-17T01:44:57.393Z,12.30
2022-11-17T01:47:39.368Z,13.37
2022-11-17T01:50:33.484Z,14.57
2022-11-17T01:53:09.920Z,12.67
2022-11-17T01:55:59.471Z,12.20
2022-11-17T01:58:37.612Z,12.63
2022-11-17T02:01:05.078Z,12.50
2022-11-17T02:03:35.428Z,14.43
2022-11-17T02:06:15.434Z,13.07
2022-11-17T02:08:48.476Z,14.50
2022-11-17T02:11:20.855Z,13.80
2022-11-17T02:13:51.702Z,12.80
2022-11-17T02:16:18.577Z,13.07
2022-11-17T02:18:48.341Z,13.27
2022-11-17T02:22:09.535Z,14.93
2022-11-17T02:25:07.091Z,14.50
2022-11-17T02:28:40.476Z,12.93
2022-11-17T02:31:55.068Z,14.03
2022-11-17T02:34:48.309Z,13.43
2022-11-17T02:38:03.876Z,13.53
2022-11-17T02:41:03.021Z,13.70
2022-11-17T02:44:03.609Z,13.77
2022-11-17T02:46:48.952Z,11.70
2022-11-17T02:49:28.864Z,11.90
2022-11-17T02:51:58.992Z,12.23
2022-11-17T02:54:31.631Z,12.90
2022-11-17T02:56:59.133Z,13.30
2022-11-17T02:59:37.128Z,13.13
2022-11-17T03:03:01.252Z,13.40
2022-11-17T03:06:21.440Z,11.40
2022-11-17T03:09:25.972Z,14.00
2022-11-17T03:12:13.874Z,12.17
2022-11-17T03:15:10.892Z,12.90
2022-11-17T03:18:09.184Z,12.13
2022-11-17T03:21:18.320Z,10.83
2022-11-17T03:24:14.308Z,12.40
2022-11-17T03:26:52.236Z,12.57
2022-11-17T03:29:27.172Z,12.43
2022-11-17T03:32:04.444Z,11.57
2022-11-17T03:34:44.076Z,12.50
2022-11-17T03:37:18.706Z,12.47
2022-11-17T03:39:57.244Z,12.20
2022-11-17T03:42:32.010Z,11.30
2022-11-17T03:45:13.871Z,11.23
2022-11-17T03:47:43.453Z,11.70
2022-11-17T03:50:40.383Z,12.00
2022-11-17T03:53:07.409Z,10.37
2022-11-17T03:55:43.904Z,10.80
2022-11-17T03:58:19.535Z,10.70
2022-11-17T04:00:53.264Z,11.87
2022-11-17T04:03:23.297Z,10.70
2022-11-17T04:05:50.192Z,11.00
2022-11-17T04:08:17.109Z,10.50
2022-11-17T04:11:02.623Z,10.87
2022-11-17T04:13:47.999Z,11.60
2022-11-17T04:16:14.876Z,11.17
2022-11-17T04:18:41.748Z,11.77
2022-11-17T04:21:08.616Z,10.73
2022-11-17T04:23:35.915Z,10.60
2022-11-17T04:26:21.862Z,11.63
2022-11-17T04:28:50.932Z,11.50
2022-11-17T04:31:25.884Z,9.70
2022-11-17T04:34:05.708Z,12.53
2022-11-17T04:36:45.644Z,12.03
2022-11-17T04:39:15.791Z,11.57
2022-11-17T04:42:01.908Z,11.67
2022-11-17T04:44:31.963Z,11.33
2022-11-17T04:47:01.931Z,12.87
2022-11-17T04:49:29.159Z,11.60
2022-11-17T04:51:55.993Z,12.00
2022-11-17T04:54:25.111Z,12.53
2022-11-17T04:56:54.830Z,13.70
2022-11-17T04:59:22.857Z,14.77
2022-11-17T05:01:50.452Z,14.77
2022-11-17T05:04:39.659Z,13.63
2022-11-17T05:07:08.951Z,12.70
2022-11-17T05:09:36.209Z,13.10
2022-11-17T05:12:21.980Z,13.20
2022-11-17T05:14:50.069Z,13.37
2022-11-17T05:17:17.778Z,13.00
2022-11-17T05:19:48.682Z,13.33
2022-11-17T05:22:40.929Z,11.97
2022-11-17T05:25:09.490Z,11.73
2022-11-17T05:27:36.762Z,12.23
2022-11-17T05:30:07.605Z,12.17
2022-11-17T05:32:34.586Z,11.60
2022-11-17T05:35:01.731Z,11.00
2022-11-17T05:37:28.600Z,10.93
2022-11-17T05:39:55.623Z,11.43
2022-11-17T05:42:22.472Z,15.20
2022-11-17T05:44:49.369Z,11.03
2022-11-17T05:47:16.237Z,13.60
2022-11-17T05:49:43.158Z,12.20
2022-11-17T05:52:10.158Z,12.83
2022-11-17T05:54:37.023Z,11.97
2022-11-17T05:57:14.549Z,13.17
2022-11-17T05:59:59.443Z,11.67
2022-11-17T06:02:37.837Z,11.73
2022-11-17T06:05:05.980Z,13.30
2022-11-17T06:07:35.802Z,13.43
2022-11-17T06:10:03.085Z,15.03
2022-11-17T06:12:29.964Z,15.40
2022-11-17T06:14:56.824Z,16.00
2022-11-17T06:17:57.896Z,14.97
2022-11-17T06:20:44.233Z,15.27
2022-11-17T06:23:12.046Z,14.30
2022-11-17T06:25:40.061Z,15.87
2022-11-17T06:28:14.924Z,15.70
2022-11-17T06:30:43.538Z,18.70
2022-11-17T06:33:15.348Z,19.10
2022-11-17T06:35:47.781Z,16.80
2022-11-17T06:38:14.661Z,16.00
2022-11-17T06:40:42.137Z,17.20
2022-11-17T06:43:11.733Z,16.17
2022-11-17T06:45:47.092Z,15.40
2022-11-17T06:48:18.077Z,16.17
2022-11-17T06:50:48.179Z,15.27
2022-11-17T06:53:15.106Z,16.27
2022-11-17T06:55:42.126Z,15.87
2022-11-17T06:58:11.554Z,15.87
2022-11-17T07:00:38.835Z,15.70
2022-11-17T07:03:10.653Z,15.90
2022-11-17T07:05:40.204Z,15.27
2022-11-17T07:08:08.898Z,15.27
2022-11-17T07:10:37.121Z,16.20
2022-11-17T07:13:04.182Z,16.20
2022-11-17T07:15:31.853Z,16.00
2022-11-17T07:17:58.786Z,16.13
2022-11-17T07:20:25.773Z,15.70
2022-11-17T07:22:58.874Z,15.80
2022-11-17T07:25:25.788Z,14.80
2022-11-17T07:28:00.409Z,14.90
2022-11-17T07:30:27.632Z,14.20
2022-11-17T07:32:55.100Z,14.00
2022-11-17T07:35:22.189Z,14.70
2022-11-17T07:37:49.137Z,14.30
2022-11-17T07:40:16.147Z,14.83
2022-11-17T07:42:49.522Z,13.80
2022-11-17T07:45:16.654Z,12.43
2022-11-17T07:47:43.540Z,12.33
2022-11-17T07:50:10.513Z,12.30
2022-11-17T07:52:41.401Z,12.77
2022-11-17T07:55:09.026Z,11.17
2022-11-17T07:57:36.249Z,12.77
2022-11-17T08:00:04.256Z,11.73
2022-11-17T08:02:31.193Z,12.87
2022-11-17T08:04:58.090Z,10.43
2022-11-17T08:07:25.128Z,11.60
2022-11-17T08:09:52.473Z,10.70
2022-11-17T08:12:19.418Z,11.07
2022-11-17T08:14:46.321Z,10.63
2022-11-17T08:17:13.222Z,10.50
2022-11-17T08:19:40.171Z,10.23
2022-11-17T08:22:07.202Z,13.67
2022-11-17T08:24:34.091Z,12.10
2022-11-17T08:27:01.181Z,12.13
2022-11-17T08:29:28.120Z,12.07
2022-11-17T08:31:55.091Z,12.87
2022-11-17T08:34:22.042Z,12.10
2022-11-17T08:36:49.005Z,12.27
2022-11-17T08:39:15.903Z,12.53
2022-11-17T08:41:42.802Z,13.70
2022-11-17T08:44:09.750Z,15.10
2022-11-17T08:46:40.253Z,14.47
2022-11-17T08:49:07.143Z,14.67
2022-11-17T08:51:34.072Z,13.73
2022-11-17T08:54:01.161Z,12.47
2022-11-17T08:56:28.176Z,13.23
2022-11-17T08:58:55.186Z,11.10
2022-11-17T09:03:49.162Z,12.13
2022-11-17T09:06:17.947Z,10.90
2022-11-17T09:08:46.982Z,9.60
2022-11-17T09:11:15.475Z,9.50
2022-11-17T09:13:42.700Z,10.23
2022-11-17T09:16:12.169Z,9.77
2022-11-17T09:18:41.544Z,8.90
2022-11-17T09:21:15.010Z,8.57
2022-11-17T09:23:42.812Z,9.77
2022-11-17T09:26:14.242Z,9.00
2022-11-17T09:28:42.553Z,9.13
2022-11-17T09:31:19.166Z,8.37
2022-11-17T09:33:46.761Z,8.83
2022-11-17T09:36:16.461Z,6.93
2022-11-17T09:38:45.137Z,7.37
2022-11-17T09:41:44.855Z,7.43
2022-11-17T09:44:47.811Z,8.03
2022-11-17T09:47:49.058Z,8.10
2022-11-17T09:50:36.472Z,8.17
2022-11-17T09:53:50.755Z,7.00
2022-11-17T09:56:17.947Z,7.67
2022-11-17T09:58:59.370Z,8.10
2022-11-17T10:01:29.197Z,7.80
2022-11-17T10:03:59.088Z,8.50
2022-11-17T10:06:30.787Z,9.03
2022-11-17T10:09:36.467Z,7.13
2022-11-17T10:12:20.300Z,7.90
2022-11-17T10:14:50.035Z,7.77
2022-11-17T10:17:17.733Z,7.33
2022-11-17T10:19:45.300Z,6.50
2022-11-17T10:22:27.996Z,6.97
2022-11-17T10:24:55.479Z,7.13
2022-11-17T10:27:34.275Z,6.67
2022-11-17T10:30:24.421Z,7.83
2022-11-17T10:32:55.453Z,7.03
2022-11-17T10:35:35.480Z,6.47
2022-11-17T10:38:20.719Z,6.13
2022-11-17T10:40:53.237Z,6.93
2022-11-17T10:43:30.240Z,5.57
2022-11-17T10:46:14.185Z,5.67
2022-11-17T10:49:05.006Z,5.33
2022-11-17T10:51:34.616Z,4.90
2022-11-17T10:54:06.777Z,4.80
2022-11-17T10:56:55.781Z,4.57
2022-11-17T10:59:58.585Z,5.50
2022-11-17T11:02:39.381Z,5.10
2022-11-17T11:05:15.493Z,4.47
2022-11-17T11:07:43.775Z,4.33
2022-11-17T11:10:26.265Z,3.77
2022-11-17T11:13:01.973Z,4.30
2022-11-17T11:15:36.113Z,4.90
2022-11-17T11:18:18.737Z,5.00
2022-11-17T11:21:21.998Z,5.93
2022-11-17T11:24:15.730Z,5.40
2022-11-17T11:27:45.344Z,5.47
2022-11-17T11:30:17.320Z,4.70
2022-11-17T11:33:41.097Z,5.03
2022-11-17T11:36:52.326Z,4.33
2022-11-17T11:40:07.697Z,4.13
2022-11-17T11:42:50.642Z,4.47
2022-11-17T11:46:32.354Z,3.97
2022-11-17T11:49:45.658Z,4.93
2022-11-17T11:52:22.797Z,3.63
2022-11-17T11:55:03.833Z,3.97
2022-11-17T11:57:55.007Z,4.10
2022-11-17T12:00:22.342Z,3.60
2022-11-17T12:03:10.801Z,4.40
2022-11-17T12:06:40.351Z,4.27
2022-11-17T12:09:31.553Z,4.10
2022-11-17T12:12:00.518Z,3.83
2022-11-17T12:14:38.182Z,3.80
2022-11-17T12:17:12.476Z,3.50
2022-11-17T12:20:07.613Z,3.10
2022-11-17T12:22:37.363Z,3.27
2022-11-17T12:25:34.233Z,2.50
2022-11-17T12:28:40.369Z,2.67
2022-11-17T12:31:42.427Z,2.57
2022-11-17T12:34:35.805Z,2.93
2022-11-17T12:37:26.303Z,2.10
2022-11-17T12:40:04.361Z,2.70
2022-11-17T12:42:35.147Z,2.93
2022-11-17T12:45:06.761Z,2.47
2022-11-17T12:47:59.189Z,2.57
2022-11-17T12:51:16.782Z,2.63
2022-11-17T12:54:28.043Z,2.60
2022-11-17T12:57:15.354Z,2.30
2022-11-17T13:00:15.220Z,2.40
2022-11-17T13:03:25.167Z,2.27
2022-11-17T13:06:35.396Z,2.40
2022-11-17T13:09:12.300Z,2.60
2022-11-17T13:11:39.355Z,2.20
2022-11-17T13:14:17.666Z,1.93
2022-11-17T13:16:51.492Z,2.40
2022-11-17T13:19:34.325Z,2.10
2022-11-17T13:22:18.616Z,1.77
2022-11-17T13:24:50.452Z,2.27
2022-11-17T13:27:32.685Z,1.90
2022-11-17T13:30:27.647Z,3.20
2022-11-17T13:32:57.130Z,1.60
2022-11-17T13:35:35.812Z,1.60
2022-11-17T13:38:11.354Z,2.37
2022-11-17T13:40:42.313Z,2.00
2022-11-17T13:43:20.682Z,1.60
2022-11-17T13:45:50.358Z,1.80
2022-11-17T13:48:45.946Z,1.63
2022-11-17T13:51:38.802Z,1.70
2022-11-17T13:54:11.855Z,1.90
2022-11-17T13:57:07.865Z,1.60
2022-11-17T13:59:39.154Z,1.90
2022-11-17T14:02:20.860Z,1.77
2022-11-17T14:05:09.707Z,1.80
2022-11-17T14:07:39.892Z,1.63
2022-11-17T14:10:22.273Z,1.93
2022-11-17T14:13:12.895Z,1.70
2022-11-17T14:15:42.876Z,2.47
2022-11-17T14:18:28.443Z,2.10
2022-11-17T14:21:10.225Z,1.00
2022-11-17T14:23:37.461Z,1.07
2022-11-17T14:26:06.108Z,1.20
2022-11-17T14:28:33.058Z,1.20
2022-11-17T14:30:59.978Z,1.10
2022-11-17T14:33:26.957Z,1.20
2022-11-17T14:35:59.917Z,1.40
2022-11-17T14:38:26.854Z,1.20
2022-11-17T14:40:54.230Z,1.10
2022-11-17T14:43:22.485Z,0.83
2022-11-17T14:45:50.770Z,1.90
2022-11-17T14:48:19.646Z,9.23
2022-11-17T14:50:48.206Z,4.47
2022-11-17T14:53:15.785Z,3.13
2022-11-17T14:55:42.650Z,3.50
2022-11-17T14:58:10.025Z,3.27
2022-11-17T15:00:37.131Z,2.70
2022-11-17T15:03:04.539Z,2.47
2022-11-17T15:05:32.113Z,2.23
2022-11-17T15:07:59.114Z,2.10
2022-11-17T15:10:26.146Z,3.30
2022-11-17T15:12:53.086Z,3.37
2022-11-17T15:15:20.097Z,2.63
2022-11-17T15:17:47.059Z,2.60
2022-11-17T15:20:14.007Z,2.90
2022-11-17T15:22:40.861Z,3.80
2022-11-17T15:25:09.117Z,4.27
2022-11-17T15:27:36.128Z,4.20
2022-11-17T15:30:04.459Z,3.60
2022-11-17T15:32:31.410Z,3.30
2022-11-17T15:34:58.270Z,3.53
2022-11-17T15:37:25.289Z,3.17
2022-11-17T15:39:52.223Z,4.33
2022-11-17T15:42:19.075Z,4.87
2022-11-17T15:44:45.998Z,4.43
2022-11-17T15:47:12.926Z,4.97
2022-11-17T15:49:39.835Z,4.30
2022-11-17T15:52:06.693Z,4.50
2022-11-17T15:54:33.555Z,3.80
2022-11-17T15:57:01.357Z,2.90
2022-11-17T15:59:28.234Z,3.47
2022-11-17T16:01:55.143Z,4.47
2022-11-17T16:04:22.091Z,3.70
2022-11-17T16:06:49.074Z,4.70
2022-11-17T16:09:16.948Z,4.63
2022-11-17T16:11:44.504Z,3.50
2022-11-17T16:14:11.733Z,4.50
2022-11-17T16:16:39.645Z,10.67
2022-11-17T16:19:07.215Z,7.93
2022-11-17T16:21:34.255Z,5.00
2022-11-17T16:24:02.162Z,5.10
2022-11-17T16:26:30.916Z,4.50
2022-11-17T16:29:06.230Z,4.27
2022-11-17T16:31:36.421Z,3.90
2022-11-17T16:34:17.843Z,3.20
2022-11-17T16:36:45.248Z,3.50
2022-11-17T16:39:17.806Z,3.57
2022-11-17T16:41:46.581Z,4.93
2022-11-17T16:44:17.978Z,3.53
2022-11-17T16:46:49.571Z,4.40
2022-11-17T16:49:19.623Z,6.20
2022-11-17T16:51:53.762Z,6.10
2022-11-17T16:54:21.399Z,9.13
2022-11-17T16:56:48.760Z,9.30
2022-11-17T16:59:16.560Z,7.87
2022-11-17T17:01:43.856Z,7.60
2022-11-17T17:04:12.246Z,8.70
2022-11-17T17:06:43.308Z,14.50
2022-11-17T17:09:14.412Z,8.60
2022-11-17T17:11:42.210Z,8.10
2022-11-17T17:14:14.702Z,7.10
2022-11-17T17:16:42.961Z,4.00
2022-11-17T17:19:14.512Z,3.80
2022-11-17T17:21:44.086Z,2.07
2022-11-17T17:24:11.806Z,4.87
2022-11-17T17:26:40.155Z,4.30
2022-11-17T17:29:08.854Z,3.20
2022-11-17T17:31:41.194Z,6.93
2022-11-17T17:34:11.399Z,11.40
2022-11-17T17:36:38.669Z,7.57
2022-11-17T17:39:07.159Z,3.43
2022-11-17T17:41:39.645Z,3.47
2022-11-17T17:44:08.690Z,4.17
2022-11-17T17:46:38.763Z,2.70
2022-11-17T17:49:07.053Z,2.77
2022-11-17T17:51:40.082Z,4.30
2022-11-17T17:54:10.112Z,5.33
2022-11-17T17:56:37.015Z,7.33
2022-11-17T17:59:03.891Z,7.57
2022-11-17T18:01:37.251Z,6.03
2022-11-17T18:04:05.041Z,5.70
2022-11-17T18:06:45.840Z,8.43
2022-11-17T18:09:15.285Z,7.43
2022-11-17T18:11:46.028Z,8.83
2022-11-17T18:14:13.663Z,8.73
2022-11-17T18:16:41.108Z,6.60
2022-11-17T18:19:15.132Z,6.83
2022-11-17T18:21:43.562Z,6.13
2022-11-17T18:24:12.554Z,7.23
2022-11-17T18:26:41.029Z,6.13
2022-11-17T18:29:16.085Z,7.60
2022-11-17T18:31:46.494Z,6.67
2022-11-17T18:34:23.732Z,5.73
2022-11-17T18:36:55.635Z,4.10
2022-11-17T18:39:23.451Z,4.40
2022-11-17T18:41:50.456Z,5.50
2022-11-17T18:44:19.611Z,4.57
2022-11-17T18:46:47.103Z,3.77
2022-11-17T18:49:14.604Z,4.97
2022-11-17T18:51:41.894Z,5.97
2022-11-17T18:54:12.364Z,5.30
2022-11-17T18:56:39.945Z,5.07
2022-11-17T18:59:11.441Z,5.47
2022-11-17T19:01:43.339Z,4.77
2022-11-17T19:04:14.494Z,5.50
2022-11-17T19:06:41.812Z,4.53
2022-11-17T19:09:09.338Z,4.77
2022-11-17T19:11:36.491Z,4.70
2022-11-17T19:14:05.209Z,5.23
2022-11-17T19:16:33.288Z,3.97
2022-11-17T19:19:00.396Z,4.67
2022-11-17T19:21:33.567Z,4.37
2022-11-17T19:24:04.560Z,5.10
2022-11-17T19:26:35.963Z,4.70
2022-11-17T19:29:16.659Z,5.73
2022-11-17T19:31:46.404Z,4.57
2022-11-17T19:34:16.749Z,7.10
2022-11-17T19:36:44.811Z,7.50
2022-11-17T19:39:13.030Z,5.90
2022-11-17T19:41:40.077Z,7.40
2022-11-17T19:44:08.870Z,8.70
2022-11-17T19:46:36.705Z,8.03
2022-11-17T19:49:07.413Z,9.27
2022-11-17T19:51:37.323Z,8.27
2022-11-17T19:54:09.046Z,7.87
2022-11-17T19:56:36.968Z,7.10
2022-11-17T19:59:04.623Z,9.07
2022-11-17T20:01:33.188Z,8.90
2022-11-17T20:04:02.060Z,9.60
2022-11-17T20:06:38.285Z,10.47
2022-11-17T20:09:14.083Z,11.00
2022-11-17T20:11:42.032Z,8.90
2022-11-17T20:14:09.180Z,9.57
2022-11-17T20:16:38.521Z,8.40
2022-11-17T20:19:05.441Z,7.80
2022-11-17T20:21:32.423Z,8.33
2022-11-17T20:24:01.085Z,8.77
2022-11-17T20:26:33.046Z,8.07
2022-11-17T20:29:01.020Z,7.80
2022-11-17T20:31:33.234Z,11.10
2022-11-17T20:34:03.535Z,13.30
2022-11-17T20:36:34.154Z,11.90
2022-11-17T20:39:06.297Z,8.60
2022-11-17T20:41:34.100Z,8.23
2022-11-17T20:44:03.103Z,11.53
2022-11-17T20:46:30.219Z,13.33
2022-11-17T20:48:57.259Z,14.70
2022-11-17T20:51:25.802Z,14.27
2022-11-17T20:53:53.298Z,8.07
2022-11-17T20:56:21.053Z,7.00
2022-11-17T20:58:48.389Z,7.10
2022-11-17T21:01:23.659Z,7.33
2022-11-17T21:03:50.650Z,8.70
2022-11-17T21:06:22.759Z,9.00
2022-11-17T21:08:49.938Z,7.93
2022-11-17T21:11:40.641Z,5.90
2022-11-17T21:14:12.398Z,6.10
2022-11-17T21:16:45.430Z,6.63
2022-11-17T21:19:14.614Z,5.33
2022-11-17T21:21:43.550Z,5.20
2022-11-17T21:24:11.315Z,6.03
2022-11-17T21:26:38.248Z,6.80
2022-11-17T21:29:06.876Z,9.10
2022-11-17T21:31:35.027Z,8.10
2022-11-17T21:34:08.596Z,8.97
2022-11-17T21:36:36.047Z,9.10
2022-11-17T21:39:04.209Z,9.47
2022-11-17T21:41:38.404Z,8.60
2022-11-17T21:44:05.492Z,8.70
2022-11-17T21:46:35.158Z,9.57
2022-11-17T21:49:02.211Z,7.67
2022-11-17T21:51:33.236Z,8.80
2022-11-17T21:54:04.278Z,8.93
2022-11-17T21:56:32.027Z,9.13
2022-11-17T21:59:04.543Z,8.73
2022-11-17T22:01:33.547Z,7.80
2022-11-17T22:04:01.031Z,8.03
2022-11-17T22:06:29.411Z,6.30
2022-11-17T22:08:59.078Z,6.63
2022-11-17T22:11:37.315Z,4.17
2022-11-17T22:14:17.831Z,5.33
2022-11-17T22:16:47.810Z,5.50
2022-11-17T22:19:17.626Z,5.60
2022-11-17T22:21:49.120Z,5.50
2022-11-17T22:24:16.397Z,5.00
2022-11-17T22:26:45.206Z,5.50
2022-11-17T22:29:21.147Z,5.53
2022-11-17T22:31:49.972Z,5.53
2022-11-17T22:34:18.202Z,7.53
2022-11-17T22:36:45.480Z,10.67
2022-11-17T22:39:12.358Z,11.23
2022-11-17T22:41:39.430Z,11.27
2022-11-17T22:44:06.625Z,10.57
2022-11-17T22:46:35.496Z,11.63
2022-11-17T22:49:03.129Z,12.20
2022-11-17T22:51:48.573Z,12.27
2022-11-17T22:54:15.645Z,10.80
2022-11-17T22:56:42.872Z,12.00
2022-11-17T22:59:10.183Z,11.13
2022-11-17T23:01:37.543Z,10.47
2022-11-17T23:04:06.525Z,10.20
2022-11-17T23:06:33.472Z,10.93
2022-11-17T23:09:00.522Z,11.77
2022-11-17T23:11:43.407Z,8.93
2022-11-17T23:14:13.761Z,8.90
2022-11-17T23:16:42.106Z,12.90
2022-11-17T23:19:13.809Z,9.53
2022-11-17T23:21:41.368Z,10.53
2022-11-17T23:24:14.398Z,11.40
2022-11-17T23:26:42.635Z,11.07
2022-11-17T23:29:09.942Z,12.37
2022-11-17T23:31:36.974Z,11.57
2022-11-17T23:34:04.009Z,12.47
2022-11-17T23:36:31.156Z,13.27
2022-11-17T23:38:58.054Z,12.20
2022-11-17T23:41:25.298Z,12.73
2022-11-17T23:43:54.471Z,10.57
2022-11-17T23:46:25.713Z,11.63
2022-11-17T23:48:56.154Z,12.00
2022-11-17T23:51:26.688Z,11.80
2022-11-17T23:53:53.762Z,10.30
2022-11-17T23:56:21.714Z,11.00
2022-11-17T23:58:50.280Z,11.67
